Aviation Digital Data Service (ADDS)

Output produced by METARs form (0136 UTC 23 November 2017)
found at http://www.aviationweather.gov/adds/metars/
 
FOOG 222230Z 17006KT 9999 SCT008 BKN026 27/26 Q1012
TAF FOOG 222300Z 2300/2324 20010KT 4000 TSRA BKN008 FEW016CB OVC023 
     BECMG 2307/2309 9999 NSW SCT010 FEW020CB BKN030 
     TEMPO 2314/2318 TS 
     PROB30 
     TEMPO 2319/2324 3500 TSRA BKN006 FEW016CB OVC020
       
FOOL 230130Z 04005KT 9000 -RA SCT008 23/22 Q1010 NOSIG
TAF FOOL 222300Z 2300/2406 22008KT 4500 TSRA BKN010 FEW016CB 
     BECMG 2305/2307 8000 NSW SCT010 BKN030 
     PROB30 
     TEMPO 2319/2404 2500 TSRA BKN008 FEW016CB OVC026
       
FOOG 222230Z 17006KT 9999 SCT008 BKN026 27/26 Q1012
TAF FOOG 222300Z 2300/2324 20010KT 4000 TSRA BKN008 FEW016CB OVC023 
     BECMG 2307/2309 9999 NSW SCT010 FEW020CB BKN030 
     TEMPO 2314/2318 TS 
     PROB30 
     TEMPO 2319/2324 3500 TSRA BKN006 FEW016CB OVC020
       
FOOL 230130Z 04005KT 9000 -RA SCT008 23/22 Q1010 NOSIG
TAF FOOL 222300Z 2300/2406 22008KT 4500 TSRA BKN010 FEW016CB 
     BECMG 2305/2307 8000 NSW SCT010 BKN030 
     PROB30 
     TEMPO 2319/2404 2500 TSRA BKN008 FEW016CB OVC026
       
FOOL 230130Z 04005KT 9000 -RA SCT008 23/22 Q1010 NOSIG
TAF FOOL 222300Z 2300/2406 22008KT 4500 TSRA BKN010 FEW016CB 
     BECMG 2305/2307 8000 NSW SCT010 BKN030 
     PROB30 
     TEMPO 2319/2404 2500 TSRA BKN008 FEW016CB OVC026
       
FOOG 222230Z 17006KT 9999 SCT008 BKN026 27/26 Q1012
TAF FOOG 222300Z 2300/2324 20010KT 4000 TSRA BKN008 FEW016CB OVC023 
     BECMG 2307/2309 9999 NSW SCT010 FEW020CB BKN030 
     TEMPO 2314/2318 TS 
     PROB30 
     TEMPO 2319/2324 3500 TSRA BKN006 FEW016CB OVC020